Terminal Aerodrome Forecast
Issued by NWS Quad Cities IA IL

Home | Current Version | Previous Version | Text Only | Print | Product List | Glossary On
Versions: 1 2 3 4 5 6 7 8 9 10 11 12 13 14 15 16 17 18 19 20 21
000
FTUS43 KDVN 180500
TAFDBQ
TAF
KDBQ 180520Z 1806/1906 00000KT P6SM SKC
     FM180900 VRB03KT 4SM BR SCT004
      TEMPO 1811/1814 1 1/2SM BR BKN004
     FM181400 15004KT 5SM BR BKN015
     FM181700 17007KT P6SM BKN025
     FM181900 20009KT P6SM BKN035
      TEMPO 1900/1904 5SM -TSRA BR BKN020CB=

USA.gov is the U.S. government's official web portal to all federal, state and local government web resources and services.